Time;durP1;ratioP1;P1;durP2;ratioP2;P2;SDS_P1;SDS_P2;PMS_P1;PMS_P2;Temp;Humidity;BMP_temperature;BMP_pressure;BME280_temperature;BME280_humidity;BME280_pressure;Samples;Min_cycle;Max_cycle;Signal;HPM_P1;HPM_P2
2022/08/24 00:00:20;;;;;;;4.70;1.02;;;19.60;50.10;;;;;;5069446;28;20100;-70
2022/08/24 00:02:47;;;;;;;3.53;1.05;;;19.60;50.30;;;;;;5069274;28;20580;-71
2022/08/24 00:05:14;;;;;;;2.63;0.90;;;19.50;50.30;;;;;;5069299;28;20119;-71
2022/08/24 00:07:40;;;;;;;15.32;1.00;;;19.50;50.30;;;;;;5070036;28;20556;-71
2022/08/24 00:10:10;;;;;;;2.00;0.52;;;19.50;50.30;;;;;;5068926;28;20032;-71
2022/08/24 00:12:36;;;;;;;0.55;0.50;;;19.40;50.30;;;;;;5064973;28;20024;-71
2022/08/24 00:15:04;;;;;;;4.00;0.90;;;19.40;50.10;;;;;;5069566;28;20035;-71
2022/08/24 00:17:31;;;;;;;5.05;0.77;;;19.40;50.10;;;;;;5069497;28;20067;-71
2022/08/24 00:19:59;;;;;;;2.00;0.60;;;19.40;50.10;;;;;;5068772;28;20027;-71
2022/08/24 00:22:26;;;;;;;5.13;1.08;;;19.30;50.30;;;;;;5066524;28;20044;-71
2022/08/24 00:24:53;;;;;;;5.05;0.75;;;19.40;50.20;;;;;;5068019;28;20040;-70
2022/08/24 00:27:20;;;;;;;5.10;0.90;;;19.40;49.90;;;;;;5068286;28;20020;-71
2022/08/24 00:29:46;;;;;;;2.15;0.68;;;19.40;49.80;;;;;;5069344;28;20048;-70
2022/08/24 00:32:13;;;;;;;2.45;0.80;;;19.40;49.80;;;;;;5068703;28;20101;-71
2022/08/24 00:34:39;;;;;;;4.57;1.17;;;19.40;49.40;;;;;;5065821;28;20391;-71
2022/08/24 00:37:05;;;;;;;2.03;0.93;;;19.40;49.40;;;;;;5069302;28;20020;-70
2022/08/24 00:39:32;;;;;;;1.05;0.45;;;19.40;49.20;;;;;;5068775;28;20024;-70
2022/08/24 00:41:59;;;;;;;2.28;0.95;;;19.40;49.20;;;;;;5068580;28;20065;-70
2022/08/24 00:44:25;;;;;;;19.25;2.65;;;19.40;49.20;;;;;;5065137;28;20028;-70
2022/08/24 00:47:01;;;;;;;9.90;6.10;;;19.30;49.70;;;;;;5068861;28;20048;-71
2022/08/24 00:49:37;;;;;;;9.27;4.03;;;19.40;50.40;;;;;;5066472;28;20033;-71
2022/08/24 00:52:20;;;;;;;3.83;2.65;;;19.40;50.20;;;;;;5069632;28;20423;-70
2022/08/24 00:55:04;;;;;;;12.00;1.92;;;19.50;50.70;;;;;;5068905;28;20032;-70
2022/08/24 00:57:35;;;;;;;13.30;1.63;;;19.50;50.30;;;;;;5067956;28;20036;-70
2022/08/24 01:00:14;;;;;;;4.15;1.30;;;19.50;50.10;;;;;;5068182;28;20013;-71
2022/08/24 01:02:44;;;;;;;5.97;1.40;;;19.40;50.50;;;;;;5068038;28;20027;-70
2022/08/24 01:05:11;;;;;;;6.38;1.30;;;19.40;50.90;;;;;;5067869;28;20033;-70
2022/08/24 01:07:39;;;;;;;9.23;2.28;;;19.40;51.30;;;;;;5067767;28;20564;-71
2022/08/24 01:10:13;;;;;;;2.47;0.70;;;19.30;51.10;;;;;;5068504;28;20017;-70
2022/08/24 01:12:44;;;;;;;10.20;1.55;;;19.30;50.90;;;;;;5069170;28;20051;-70
2022/08/24 01:15:12;;;;;;;3.55;0.90;;;19.30;51.10;;;;;;5065754;28;20587;-70
2022/08/24 01:20:25;;;;;;;6.53;0.80;;;19.20;51.30;;;;;;5068249;28;20529;-70
2022/08/24 01:23:28;;;;;;;2.85;1.30;;;19.20;51.20;;;;;;5067453;28;20066;-71
2022/08/24 01:25:55;;;;;;;6.55;1.30;;;19.10;51.10;;;;;;5066512;28;20036;-70
2022/08/24 01:28:22;;;;;;;6.57;5.00;;;19.10;51.00;;;;;;5066902;28;20029;-70
2022/08/24 01:30:48;;;;;;;12.38;5.38;;;19.10;51.00;;;;;;5068225;28;20032;-71
2022/08/24 01:33:28;;;;;;;5.00;4.40;;;19.10;50.90;;;;;;5069382;28;20028;-70
2022/08/24 01:36:18;;;;;;;5.18;2.67;;;19.10;50.70;;;;;;5065957;28;20032;-70
2022/08/24 01:38:46;;;;;;;3.22;1.55;;;19.10;50.50;;;;;;5064658;28;20544;-70
2022/08/24 01:41:13;;;;;;;6.07;1.40;;;19.00;50.20;;;;;;5066273;28;20021;-70
2022/08/24 01:43:40;;;;;;;5.70;1.30;;;19.00;50.00;;;;;;5068548;28;20110;-70
2022/08/24 01:46:07;;;;;;;6.15;2.10;;;19.00;50.20;;;;;;5067553;28;20044;-70
2022/08/24 01:48:34;;;;;;;3.63;1.08;;;19.00;50.20;;;;;;5065455;28;20016;-70
2022/08/24 01:51:00;;;;;;;4.88;1.85;;;19.00;50.20;;;;;;5065300;28;20099;-70
2022/08/24 01:53:27;;;;;;;11.27;1.60;;;19.00;50.50;;;;;;5066392;28;20112;-70
2022/08/24 01:55:54;;;;;;;3.88;1.10;;;19.00;50.90;;;;;;5068139;28;20498;-70
2022/08/24 01:58:20;;;;;;;6.75;1.20;;;18.90;50.70;;;;;;5066543;28;20024;-70
2022/08/24 02:00:47;;;;;;;9.27;1.65;;;18.90;50.40;;;;;;5069118;28;20096;-70
2022/08/24 02:03:14;;;;;;;13.90;7.00;;;18.90;50.80;;;;;;5064933;28;20498;-70
2022/08/24 02:05:41;;;;;;;26.33;21.25;;;18.90;51.60;;;;;;5063131;28;20025;-70
2022/08/24 02:08:07;;;;;;;20.02;14.15;;;18.90;51.70;;;;;;5066439;28;20025;-71
2022/08/24 02:10:34;;;;;;;16.08;7.88;;;18.90;51.20;;;;;;5066136;28;20066;-71
2022/08/24 02:13:01;;;;;;;12.35;5.20;;;18.90;51.10;;;;;;5066427;28;20432;-70
2022/08/24 02:15:31;;;;;;;5.70;3.75;;;18.90;51.30;;;;;;5067394;28;20635;-70
2022/08/24 02:18:02;;;;;;;9.80;2.33;;;18.80;50.80;;;;;;5065617;28;20024;-71
2022/08/24 02:20:29;;;;;;;12.70;2.50;;;18.80;50.40;;;;;;5065847;28;20020;-71
2022/08/24 02:22:55;;;;;;;11.23;1.80;;;18.80;51.40;;;;;;5065226;28;20038;-71
2022/08/24 02:25:23;;;;;;;5.78;1.70;;;18.80;51.60;;;;;;5066978;28;20041;-71
2022/08/24 02:27:50;;;;;;;4.28;1.33;;;18.70;51.40;;;;;;5065554;28;20530;-71
2022/08/24 02:30:18;;;;;;;1.75;1.08;;;18.70;51.40;;;;;;5052138;28;20380;-70
2022/08/24 02:32:44;;;;;;;7.43;1.77;;;18.70;51.40;;;;;;5065557;28;20020;-70
2022/08/24 02:35:11;;;;;;;2.35;1.17;;;18.60;51.60;;;;;;5067348;28;20614;-70
2022/08/24 02:37:38;;;;;;;5.82;1.88;;;18.60;51.70;;;;;;5064707;28;20024;-70
2022/08/24 02:40:07;;;;;;;5.07;1.92;;;18.60;51.80;;;;;;5066595;28;20036;-70
2022/08/24 02:42:34;;;;;;;6.32;1.80;;;18.60;52.00;;;;;;5065859;28;20476;-70
2022/08/24 02:45:01;;;;;;;8.75;1.70;;;18.50;52.70;;;;;;5065910;28;20029;-71
2022/08/24 02:47:28;;;;;;;6.50;2.03;;;18.50;52.40;;;;;;5063575;28;20497;-70
2022/08/24 02:49:54;;;;;;;7.30;1.98;;;18.50;52.60;;;;;;5065080;28;20099;-71
2022/08/24 02:52:21;;;;;;;4.32;1.63;;;18.50;52.90;;;;;;5064532;28;20475;-72
2022/08/24 02:54:47;;;;;;;7.22;1.92;;;18.50;52.90;;;;;;5063575;28;20409;-71
2022/08/24 02:57:14;;;;;;;13.00;2.17;;;18.50;53.10;;;;;;5064844;28;20040;-71
2022/08/24 02:59:40;;;;;;;10.68;1.92;;;18.40;53.00;;;;;;5065072;28;20114;-71
2022/08/24 03:02:07;;;;;;;22.23;3.65;;;18.40;53.50;;;;;;5065319;28;20013;-71
2022/08/24 03:04:33;;;;;;;8.38;1.92;;;18.40;53.50;;;;;;5065711;28;20031;-71
2022/08/24 03:07:00;;;;;;;6.30;1.85;;;18.40;53.90;;;;;;5064107;28;20099;-72
2022/08/24 03:09:26;;;;;;;7.45;2.00;;;18.40;54.20;;;;;;5066099;28;20510;-72
2022/08/24 03:11:53;;;;;;;7.40;2.25;;;18.50;54.30;;;;;;5065099;28;20029;-71
2022/08/24 03:14:19;;;;;;;5.07;1.55;;;18.50;54.50;;;;;;5066864;28;20139;-71
2022/08/24 03:16:46;;;;;;;6.07;1.73;;;18.50;54.60;;;;;;5063282;28;20024;-71
2022/08/24 03:19:14;;;;;;;11.45;1.85;;;18.50;54.60;;;;;;5067658;28;20545;-71
2022/08/24 03:21:41;;;;;;;10.60;2.55;;;18.50;55.10;;;;;;5066056;28;20049;-71
2022/08/24 03:24:07;;;;;;;13.13;2.95;;;18.50;55.20;;;;;;5061420;28;20418;-71
2022/08/24 03:26:34;;;;;;;10.00;2.17;;;18.50;55.40;;;;;;5068045;28;20510;-71
2022/08/24 03:29:01;;;;;;;11.38;2.00;;;18.50;54.80;;;;;;5066086;28;20096;-71
2022/08/24 03:31:27;;;;;;;5.63;2.42;;;18.40;54.20;;;;;;5066157;28;20021;-71
2022/08/24 03:33:53;;;;;;;4.90;1.90;;;18.40;54.30;;;;;;5066591;28;20019;-71
2022/08/24 03:36:20;;;;;;;5.35;2.13;;;18.40;54.10;;;;;;5066897;28;20024;-71
2022/08/24 03:38:46;;;;;;;6.10;2.05;;;18.30;54.00;;;;;;5065620;28;20016;-71
2022/08/24 03:41:13;;;;;;;6.68;1.80;;;18.30;53.90;;;;;;5065386;28;20074;-71
2022/08/24 03:43:47;;;;;;;9.18;1.98;;;18.30;53.80;;;;;;5066026;28;20028;-71
2022/08/24 03:46:20;;;;;;;4.95;1.65;;;18.30;53.80;;;;;;5064081;28;20480;-71
2022/08/24 03:48:48;;;;;;;5.63;1.52;;;18.30;53.90;;;;;;5062659;28;20025;-71
2022/08/24 03:51:36;;;;;;;4.15;2.08;;;18.30;54.00;;;;;;5065174;28;20070;-71
2022/08/24 03:54:04;;;;;;;10.32;2.05;;;18.20;54.10;;;;;;5063782;28;20492;-71
2022/08/24 03:56:31;;;;;;;6.22;1.60;;;18.20;54.20;;;;;;5066587;28;20028;-71
2022/08/24 03:58:57;;;;;;;5.30;1.50;;;18.20;54.30;;;;;;5065789;28;20488;-71
2022/08/24 04:01:24;;;;;;;7.00;2.03;;;18.20;54.30;;;;;;5051929;28;20439;-70
2022/08/24 04:03:52;;;;;;;29.83;2.88;;;18.10;54.30;;;;;;5066380;28;20094;-70
2022/08/24 04:06:20;;;;;;;16.20;2.40;;;18.10;54.50;;;;;;5066644;28;20484;-70
2022/08/24 04:08:47;;;;;;;25.15;5.25;;;18.10;54.60;;;;;;5064915;28;20082;-70
2022/08/24 04:11:17;;;;;;;28.80;17.17;;;18.00;54.80;;;;;;5062316;28;20025;-70
2022/08/24 04:13:45;;;;;;;27.92;14.95;;;18.10;55.10;;;;;;5066517;28;20021;-70
2022/08/24 04:16:14;;;;;;;10.23;6.82;;;18.10;55.30;;;;;;5067578;28;20005;-68
2022/08/24 04:18:41;;;;;;;14.77;4.85;;;18.10;56.00;;;;;;5065686;28;20026;-68
2022/08/24 04:21:16;;;;;;;10.07;3.58;;;18.10;57.10;;;;;;5067621;28;20040;-67
2022/08/24 04:23:43;;;;;;;7.60;3.28;;;18.00;57.30;;;;;;5067472;28;20025;-68
2022/08/24 04:26:09;;;;;;;7.65;3.22;;;18.10;57.40;;;;;;5068862;28;20044;-70
2022/08/24 04:28:36;;;;;;;6.63;2.40;;;18.10;57.60;;;;;;5070044;28;20025;-69
2022/08/24 04:31:05;;;;;;;7.40;3.30;;;18.10;57.80;;;;;;5070219;28;20095;-70
2022/08/24 04:33:31;;;;;;;44.67;32.10;;;18.10;57.80;;;;;;5067633;28;20025;-71
2022/08/24 04:35:58;;;;;;;30.30;20.65;;;18.10;57.10;;;;;;5066954;28;20017;-71
2022/08/24 04:38:25;;;;;;;26.38;17.17;;;18.00;57.80;;;;;;5066177;28;20028;-71
2022/08/24 04:40:52;;;;;;;21.40;10.90;;;18.00;58.10;;;;;;5074359;28;20038;-70
2022/08/24 04:43:18;;;;;;;15.05;6.85;;;18.00;58.20;;;;;;5073882;28;20107;-73
2022/08/24 04:45:49;;;;;;;9.10;4.47;;;17.90;58.00;;;;;;5077576;28;20546;-73
2022/08/24 04:48:16;;;;;;;9.88;3.60;;;17.90;58.10;;;;;;5074951;28;20107;-71
2022/08/24 04:50:43;;;;;;;20.50;5.28;;;17.90;58.20;;;;;;5067523;28;20119;-71
2022/08/24 04:53:13;;;;;;;12.98;3.42;;;17.90;58.90;;;;;;5066353;28;20077;-73
2022/08/24 04:55:46;;;;;;;10.02;2.72;;;17.90;58.70;;;;;;5065053;28;20115;-71
2022/08/24 04:58:15;;;;;;;11.23;3.15;;;17.80;58.70;;;;;;5068822;28;20016;-71
2022/08/24 05:00:41;;;;;;;7.53;2.58;;;17.90;59.10;;;;;;5067143;28;20095;-71
2022/08/24 05:03:10;;;;;;;12.20;3.95;;;17.80;59.50;;;;;;5067573;28;20070;-71
2022/08/24 05:05:47;;;;;;;8.02;3.50;;;17.80;59.90;;;;;;5069091;28;20173;-71
2022/08/24 05:08:15;;;;;;;18.52;4.15;;;17.80;59.90;;;;;;5067998;28;20020;-71
2022/08/24 05:10:46;;;;;;;11.60;3.28;;;17.80;60.20;;;;;;5069909;28;20400;-72
2022/08/24 05:13:13;;;;;;;11.60;3.42;;;17.80;60.20;;;;;;5066897;28;20062;-71
2022/08/24 05:15:45;;;;;;;10.55;3.83;;;17.80;60.80;;;;;;5068620;28;20116;-71
2022/08/24 05:18:13;;;;;;;11.88;5.18;;;17.80;60.60;;;;;;5067629;28;20012;-71
2022/08/24 05:20:41;;;;;;;16.02;4.55;;;17.70;60.80;;;;;;5068923;28;20029;-71
2022/08/24 05:23:08;;;;;;;12.68;4.60;;;17.70;60.90;;;;;;5067664;28;20020;-71
2022/08/24 05:25:36;;;;;;;13.77;4.85;;;17.70;61.10;;;;;;5064128;28;20491;-71
2022/08/24 05:28:02;;;;;;;18.83;4.82;;;17.70;61.40;;;;;;5061916;28;20425;-71
2022/08/24 05:30:29;;;;;;;11.68;5.07;;;17.70;61.50;;;;;;5068383;28;20024;-71
2022/08/24 05:32:55;;;;;;;11.18;4.47;;;17.70;61.80;;;;;;5065983;28;20396;-71
2022/08/24 05:35:22;;;;;;;11.95;4.65;;;17.60;61.90;;;;;;5065537;28;20027;-71
2022/08/24 05:37:48;;;;;;;12.90;4.18;;;17.60;62.30;;;;;;5069033;28;20029;-71
2022/08/24 05:40:18;;;;;;;11.55;4.97;;;17.60;62.60;;;;;;5069221;28;20008;-70
2022/08/24 05:42:44;;;;;;;10.43;4.40;;;17.60;62.80;;;;;;5063403;28;20021;-70
2022/08/24 05:45:11;;;;;;;11.55;4.35;;;17.60;63.20;;;;;;5069267;28;20021;-71
2022/08/24 05:47:38;;;;;;;12.38;4.43;;;17.60;63.20;;;;;;5067881;28;20040;-71
2022/08/24 05:50:06;;;;;;;9.65;3.80;;;17.60;63.50;;;;;;5068168;28;20028;-71
2022/08/24 05:52:34;;;;;;;16.75;4.13;;;17.70;64.20;;;;;;5067530;28;20042;-71
2022/08/24 05:55:01;;;;;;;12.73;4.35;;;17.70;64.20;;;;;;5069269;28;20404;-71
2022/08/24 05:57:33;;;;;;;18.60;6.35;;;17.70;64.30;;;;;;5068581;28;20027;-71
2022/08/24 06:00:00;;;;;;;19.70;4.88;;;17.70;64.60;;;;;;5068610;28;20104;-71
2022/08/24 06:02:27;;;;;;;13.60;4.78;;;17.70;66.20;;;;;;5067623;28;20040;-72
2022/08/24 06:04:54;;;;;;;22.17;5.32;;;17.70;66.90;;;;;;5067192;28;20140;-71
2022/08/24 06:07:21;;;;;;;15.85;4.55;;;17.70;68.00;;;;;;5069833;28;20032;-71
2022/08/24 06:09:47;;;;;;;14.15;4.40;;;17.80;68.40;;;;;;5064272;28;20066;-71
2022/08/24 06:12:14;;;;;;;13.88;4.15;;;17.80;68.10;;;;;;5066195;28;20016;-71
2022/08/24 06:14:46;;;;;;;15.13;4.88;;;17.80;67.90;;;;;;5066973;28;20027;-71
2022/08/24 06:17:13;;;;;;;17.60;5.30;;;17.80;67.90;;;;;;5065574;28;20024;-71
2022/08/24 06:19:39;;;;;;;17.60;4.60;;;17.80;68.00;;;;;;5069812;28;20464;-71
2022/08/24 06:22:06;;;;;;;20.38;4.57;;;17.80;68.10;;;;;;5065599;28;20378;-70
2022/08/24 06:27:22;;;;;;;16.02;4.85;;;17.90;69.30;;;;;;5068331;28;20055;-70
2022/08/24 06:29:58;;;;;;;21.13;4.00;;;17.90;69.40;;;;;;5066886;28;20016;-70
2022/08/24 06:32:25;;;;;;;18.70;4.25;;;17.90;69.90;;;;;;5068260;28;20013;-70
2022/08/24 06:34:55;;;;;;;13.13;5.35;;;17.90;70.20;;;;;;5065379;28;20100;-70
2022/08/24 06:37:25;;;;;;;13.32;3.42;;;17.90;70.30;;;;;;5069285;28;20031;-70
2022/08/24 06:39:56;;;;;;;10.85;4.95;;;17.90;70.40;;;;;;5067567;28;20369;-70
2022/08/24 06:42:28;;;;;;;13.05;3.50;;;17.90;70.60;;;;;;5068512;28;20028;-70
2022/08/24 06:44:54;;;;;;;15.80;5.40;;;17.90;70.90;;;;;;5064429;28;20033;-70
2022/08/24 06:47:21;;;;;;;13.35;5.82;;;17.90;70.90;;;;;;5067075;28;20401;-70
2022/08/24 06:49:48;;;;;;;16.40;3.85;;;17.90;70.90;;;;;;5069733;28;20023;-70
2022/08/24 06:52:15;;;;;;;14.70;5.45;;;18.00;71.40;;;;;;5065094;28;20483;-70
2022/08/24 06:54:41;;;;;;;10.15;4.65;;;18.00;71.50;;;;;;5067929;28;20071;-70
2022/08/24 06:57:08;;;;;;;16.52;4.75;;;17.90;71.70;;;;;;5067141;28;20058;-71
2022/08/24 06:59:34;;;;;;;13.85;4.72;;;18.00;71.90;;;;;;5068415;28;20035;-70
2022/08/24 07:02:01;;;;;;;26.33;5.40;;;18.00;71.90;;;;;;5064173;28;20372;-69
2022/08/24 07:04:28;;;;;;;19.75;3.85;;;18.00;72.30;;;;;;5067523;28;20446;-70
2022/08/24 07:06:55;;;;;;;39.83;13.30;;;18.00;72.50;;;;;;5063052;28;20549;-69
2022/08/24 07:09:23;;;;;;;19.92;10.60;;;18.00;72.50;;;;;;5065850;28;20024;-70
2022/08/24 07:11:51;;;;;;;16.55;8.95;;;18.00;72.60;;;;;;5060646;28;20115;-70
2022/08/24 07:14:19;;;;;;;17.25;5.70;;;18.00;72.50;;;;;;5060385;28;20023;-70
2022/08/24 07:16:51;;;;;;;15.82;4.93;;;18.10;72.70;;;;;;5057059;28;20025;-70
2022/08/24 07:19:18;;;;;;;18.38;5.15;;;18.10;73.50;;;;;;5062557;28;20033;-71
2022/08/24 07:21:45;;;;;;;14.40;3.63;;;18.10;74.00;;;;;;5059732;28;20051;-71
2022/08/24 07:24:11;;;;;;;15.77;4.38;;;18.20;74.50;;;;;;5062128;28;20044;-70
2022/08/24 07:26:38;;;;;;;19.50;4.65;;;18.20;74.60;;;;;;5062855;28;20790;-71
2022/08/24 07:29:44;;;;;;;13.38;4.07;;;18.20;74.60;;;;;;5063490;28;20423;-70
2022/08/24 07:32:11;;;;;;;18.33;4.07;;;18.30;74.80;;;;;;5058166;28;20541;-70
2022/08/24 07:34:37;;;;;;;12.45;4.07;;;18.30;74.70;;;;;;5061350;28;20167;-70
2022/08/24 07:37:04;;;;;;;13.50;4.57;;;18.30;74.50;;;;;;5056031;28;20472;-71
2022/08/24 07:39:31;;;;;;;16.42;4.13;;;18.30;74.30;;;;;;5065432;28;20025;-70
2022/08/24 07:41:58;;;;;;;16.30;4.20;;;18.30;74.10;;;;;;5057034;28;20016;-71
2022/08/24 07:44:24;;;;;;;10.05;3.45;;;18.40;74.30;;;;;;5061865;28;20135;-71
2022/08/24 07:46:51;;;;;;;16.58;4.93;;;18.40;74.30;;;;;;5057609;28;20029;-71
2022/08/24 07:49:17;;;;;;;15.35;4.03;;;18.40;74.40;;;;;;5068087;28;20482;-70
2022/08/24 07:51:44;;;;;;;20.23;4.78;;;18.40;74.40;;;;;;5066016;28;20024;-70
2022/08/24 07:54:12;;;;;;;11.23;3.40;;;18.40;74.40;;;;;;5064108;28;20099;-70
2022/08/24 07:56:38;;;;;;;18.73;4.70;;;18.40;74.50;;;;;;5063493;28;20027;-70
2022/08/24 07:59:04;;;;;;;17.55;5.45;;;18.40;74.60;;;;;;5064248;28;20039;-69
2022/08/24 08:01:33;;;;;;;14.82;3.58;;;18.50;74.70;;;;;;5063739;28;20066;-70
2022/08/24 08:03:59;;;;;;;10.82;2.90;;;18.50;74.50;;;;;;5065644;28;20020;-70
2022/08/24 08:06:26;;;;;;;9.90;3.30;;;18.50;74.50;;;;;;5066297;28;20032;-71
2022/08/24 08:08:52;;;;;;;12.43;3.25;;;18.50;74.30;;;;;;5070485;28;20519;-70
2022/08/24 08:11:19;;;;;;;14.68;3.80;;;18.60;74.20;;;;;;5065154;28;20932;-70
2022/08/24 08:13:45;;;;;;;10.35;3.25;;;18.60;74.10;;;;;;5064422;28;20108;-70
2022/08/24 08:16:12;;;;;;;13.60;3.00;;;18.60;73.90;;;;;;5065913;28;20013;-70
2022/08/24 08:18:38;;;;;;;11.38;3.78;;;18.60;73.80;;;;;;5064143;28;20535;-70
2022/08/24 08:24:13;;;;;;;21.80;10.43;;;18.70;74.00;;;;;;5064109;28;20037;-70
2022/08/24 08:24:14;;;;;;;15.77;7.82;;;18.70;74.00;;;;;;5063783;28;20044;-70
2022/08/24 08:26:44;;;;;;;10.68;4.90;;;18.70;74.00;;;;;;5062049;28;20036;-70
2022/08/24 08:29:12;;;;;;;10.45;3.63;;;18.70;73.90;;;;;;5063016;28;20066;-69
2022/08/24 08:31:40;;;;;;;13.20;4.95;;;18.70;73.80;;;;;;5063831;28;20526;-68
2022/08/24 08:34:08;;;;;;;16.33;3.53;;;18.80;73.80;;;;;;5064044;28;20488;-70
2022/08/24 08:36:36;;;;;;;16.48;4.55;;;18.80;73.90;;;;;;5065094;28;20029;-70
2022/08/24 08:39:03;;;;;;;13.43;4.43;;;18.80;74.20;;;;;;5063857;28;20039;-69
2022/08/24 08:41:47;;;;;;;11.25;4.55;;;18.80;74.40;;;;;;5061139;28;20515;-70
2022/08/24 08:44:33;;;;;;;11.50;4.27;;;18.80;74.60;;;;;;5064738;28;20021;-69
2022/08/24 08:47:18;;;;;;;12.98;4.25;;;18.80;74.60;;;;;;5064779;28;20086;-69
2022/08/24 08:50:12;;;;;;;10.88;3.28;;;18.80;74.50;;;;;;5066755;28;20017;-70
2022/08/24 08:52:57;;;;;;;14.20;3.78;;;18.80;74.50;;;;;;5069932;28;20070;-70
2022/08/24 08:55:40;;;;;;;12.03;4.07;;;18.90;74.60;;;;;;5063451;28;20037;-69
2022/08/24 08:58:42;;;;;;;9.40;3.17;;;18.90;74.80;;;;;;5061518;28;20024;-70
2022/08/24 09:01:23;;;;;;;9.13;3.42;;;18.90;74.80;;;;;;5065561;28;20081;-69
2022/08/24 09:04:23;;;;;;;14.68;3.60;;;18.90;74.80;;;;;;5062480;28;20027;-70
2022/08/24 09:07:07;;;;;;;12.80;3.83;;;19.00;75.00;;;;;;5062404;28;20033;-70
2022/08/24 09:09:45;;;;;;;17.60;4.47;;;19.00;74.90;;;;;;5063665;28;20395;-69
2022/08/24 09:12:11;;;;;;;17.63;3.90;;;19.10;75.00;;;;;;5062105;28;20379;-69
2022/08/24 09:15:05;;;;;;;9.30;3.28;;;19.10;75.10;;;;;;5061496;28;20036;-69
2022/08/24 09:17:38;;;;;;;15.73;3.35;;;19.20;75.50;;;;;;5065671;28;20021;-69
2022/08/24 09:20:17;;;;;;;13.50;3.60;;;19.20;75.90;;;;;;5067477;28;20059;-69
2022/08/24 09:22:47;;;;;;;15.10;2.92;;;19.20;75.90;;;;;;5062556;28;20558;-69
2022/08/24 09:25:32;;;;;;;11.73;3.10;;;19.30;75.90;;;;;;5063159;28;20040;-68
2022/08/24 09:28:19;;;;;;;13.50;4.78;;;19.30;75.80;;;;;;5061808;28;20020;-69
2022/08/24 09:31:02;;;;;;;15.38;4.13;;;19.30;75.70;;;;;;5066572;28;20029;-69
2022/08/24 09:34:30;;;;;;;11.23;2.67;;;19.40;75.50;;;;;;5064089;28;20036;-69
2022/08/24 09:37:19;;;;;;;14.35;3.67;;;19.50;75.10;;;;;;5029672;28;20045;-69
2022/08/24 09:40:30;;;;;;;19.85;4.88;;;19.50;74.90;;;;;;5062172;28;20029;-69
2022/08/24 09:43:27;;;;;;;22.73;8.65;;;19.60;74.80;;;;;;5055890;28;20070;-70
2022/08/24 09:46:00;;;;;;;22.00;7.25;;;19.60;74.70;;;;;;5058695;28;20020;-69
2022/08/24 09:48:26;;;;;;;19.38;4.75;;;19.70;74.60;;;;;;5066893;28;20025;-69
2022/08/24 09:51:43;;;;;;;15.57;4.10;;;19.70;75.00;;;;;;5062529;28;20074;-69
2022/08/24 09:54:52;;;;;;;14.05;4.85;;;19.80;74.10;;;;;;5064743;28;20027;-69
2022/08/24 09:57:28;;;;;;;10.38;2.85;;;19.80;73.90;;;;;;5063901;28;20081;-69
2022/08/24 10:00:19;;;;;;;15.80;3.55;;;19.90;73.90;;;;;;5064435;28;20024;-69
2022/08/24 10:02:53;;;;;;;9.40;3.05;;;19.90;73.80;;;;;;5064802;28;20015;-69
2022/08/24 10:05:57;;;;;;;10.85;3.08;;;20.00;73.70;;;;;;5060473;28;21020;-69
2022/08/24 10:08:50;;;;;;;14.20;4.65;;;20.00;73.30;;;;;;5064189;28;20039;-69
2022/08/24 10:11:56;;;;;;;16.88;5.13;;;20.10;73.30;;;;;;5061120;28;20105;-69
2022/08/24 10:14:28;;;;;;;12.97;3.73;;;20.10;72.90;;;;;;5049913;28;20029;-69
2022/08/24 10:17:22;;;;;;;17.02;3.75;;;20.10;72.60;;;;;;5060048;28;20425;-69
2022/08/24 10:20:00;;;;;;;14.68;3.95;;;20.20;72.60;;;;;;5063349;28;20028;-69
2022/08/24 10:22:44;;;;;;;22.33;4.95;;;20.20;72.20;;;;;;5067262;28;20040;-69
2022/08/24 10:25:32;;;;;;;15.90;3.10;;;20.20;72.00;;;;;;5059644;28;20037;-69
2022/08/24 10:28:21;;;;;;;10.93;4.03;;;20.30;72.20;;;;;;5061227;28;20029;-69
2022/08/24 10:31:20;;;;;;;19.65;4.03;;;20.30;72.00;;;;;;5056111;28;20474;-69
2022/08/24 10:34:05;;;;;;;11.52;3.40;;;20.30;71.90;;;;;;5055623;28;20033;-69
2022/08/24 10:37:09;;;;;;;17.80;3.88;;;20.40;71.70;;;;;;5064214;28;20056;-70
2022/08/24 10:39:50;;;;;;;13.85;3.63;;;20.40;71.60;;;;;;5067863;28;20016;-69
2022/08/24 10:46:17;;;;;;;11.00;3.78;;;20.50;71.50;;;;;;5061514;28;20087;-69
2022/08/24 10:49:12;;;;;;;10.90;2.85;;;20.50;71.60;;;;;;5064299;28;20024;-69
2022/08/24 10:52:08;;;;;;;10.60;2.90;;;20.50;71.10;;;;;;5062330;28;20012;-69
2022/08/24 10:54:36;;;;;;;13.63;3.92;;;20.50;70.70;;;;;;5065027;28;20025;-70
2022/08/24 10:57:35;;;;;;;11.43;3.58;;;20.50;69.80;;;;;;5059016;28;20042;-69
2022/08/24 11:00:14;;;;;;;11.40;2.90;;;20.60;70.40;;;;;;5062751;28;20025;-69
2022/08/24 11:02:44;;;;;;;15.95;4.18;;;20.60;70.20;;;;;;5059611;28;20083;-69
2022/08/24 11:05:26;;;;;;;16.30;7.25;;;20.60;69.90;;;;;;5073877;28;20459;-70
2022/08/24 11:08:03;;;;;;;10.98;3.88;;;20.60;69.70;;;;;;5058511;28;20029;-70
2022/08/24 11:10:36;;;;;;;16.73;3.97;;;20.60;69.50;;;;;;5066524;28;20028;-70
2022/08/24 11:13:24;;;;;;;15.60;3.28;;;20.60;69.30;;;;;;5065206;28;20387;-70
2022/08/24 11:15:56;;;;;;;9.13;3.15;;;20.60;69.70;;;;;;5063818;28;20025;-70
2022/08/24 11:18:24;;;;;;;10.95;2.88;;;20.60;69.60;;;;;;5063423;28;20105;-70
2022/08/24 11:20:53;;;;;;;14.13;4.18;;;20.60;69.10;;;;;;5062654;28;20051;-70
2022/08/24 11:23:23;;;;;;;14.98;3.65;;;20.60;68.80;;;;;;5064750;28;20028;-70
2022/08/24 11:26:04;;;;;;;15.30;3.95;;;20.70;68.80;;;;;;5069888;28;20404;-70
2022/08/24 11:28:32;;;;;;;12.48;3.92;;;20.70;68.80;;;;;;5070700;28;20024;-70
2022/08/24 11:30:59;;;;;;;10.35;3.08;;;20.60;68.90;;;;;;5064847;28;20085;-70
2022/08/24 11:33:33;;;;;;;15.43;4.72;;;20.70;69.10;;;;;;5065241;28;20021;-70
2022/08/24 11:36:01;;;;;;;11.85;3.40;;;20.70;69.10;;;;;;5064210;28;20361;-70
2022/08/24 11:38:35;;;;;;;16.48;3.45;;;20.70;69.10;;;;;;5063133;28;20070;-70
2022/08/24 11:41:15;;;;;;;12.05;4.82;;;20.80;68.80;;;;;;5067422;28;20047;-71
2022/08/24 11:44:02;;;;;;;14.15;3.45;;;20.80;68.80;;;;;;5068267;28;20039;-70
2022/08/24 11:46:49;;;;;;;14.52;3.95;;;20.80;68.90;;;;;;5066210;28;20190;-70
2022/08/24 11:49:41;;;;;;;19.45;5.10;;;20.80;68.80;;;;;;5065841;28;20036;-70
2022/08/24 11:52:16;;;;;;;10.75;3.25;;;20.90;68.80;;;;;;5064614;28;20032;-70
2022/08/24 11:54:56;;;;;;;12.45;3.28;;;20.90;68.70;;;;;;5065974;28;20013;-70
2022/08/24 11:57:43;;;;;;;15.80;5.07;;;20.90;68.50;;;;;;5064814;28;20019;-71
2022/08/24 12:00:17;;;;;;;10.25;3.90;;;20.90;68.40;;;;;;5066774;28;20040;-70
2022/08/24 12:03:08;;;;;;;24.30;3.47;;;20.90;68.30;;;;;;5061736;28;20124;-70
2022/08/24 12:05:56;;;;;;;13.45;3.45;;;20.90;68.30;;;;;;5060161;28;20043;-69
2022/08/24 12:08:53;;;;;;;10.40;3.20;;;20.90;68.40;;;;;;5063512;28;20054;-70
2022/08/24 12:11:53;;;;;;;13.25;2.80;;;21.00;68.30;;;;;;5067677;28;20033;-70
2022/08/24 12:14:32;;;;;;;16.20;3.40;;;21.00;68.00;;;;;;5070957;28;20042;-71
2022/08/24 12:17:34;;;;;;;10.68;3.80;;;20.90;68.20;;;;;;5063110;28;20046;-70
2022/08/24 12:20:30;;;;;;;10.43;2.60;;;21.00;68.30;;;;;;5065033;28;20484;-70
2022/08/24 12:23:07;;;;;;;13.68;3.58;;;21.00;68.10;;;;;;5059488;28;20087;-70
2022/08/24 12:28:31;;;;;;;13.27;3.80;;;21.00;68.10;;;;;;5063327;28;20430;-70
2022/08/24 12:31:23;;;;;;;12.68;3.90;;;21.00;68.10;;;;;;5065312;28;20020;-70
2022/08/24 12:33:56;;;;;;;11.80;4.07;;;21.10;68.00;;;;;;5067110;28;20488;-70
2022/08/24 12:37:00;;;;;;;15.40;3.35;;;21.10;67.90;;;;;;5062527;28;20047;-70
2022/08/24 12:39:34;;;;;;;11.50;2.45;;;21.10;68.00;;;;;;5054440;28;20045;-70
2022/08/24 12:42:27;;;;;;;14.82;4.82;;;21.20;67.70;;;;;;5062775;28;20512;-70
2022/08/24 12:44:58;;;;;;;22.20;4.18;;;21.10;67.80;;;;;;5064396;28;20103;-70
2022/08/24 12:47:34;;;;;;;20.08;4.47;;;21.20;68.00;;;;;;5063610;28;20107;-70
2022/08/24 12:50:11;;;;;;;14.85;3.22;;;21.10;67.90;;;;;;5067555;28;20081;-70
2022/08/24 12:53:19;;;;;;;8.65;2.63;;;21.10;67.60;;;;;;5062754;28;20020;-70
2022/08/24 12:55:52;;;;;;;7.93;2.58;;;21.00;67.20;;;;;;5064610;28;20017;-70
2022/08/24 12:58:52;;;;;;;7.70;2.78;;;21.00;66.90;;;;;;5062389;28;20021;-70
2022/08/24 13:01:20;;;;;;;12.25;3.30;;;20.90;66.60;;;;;;5063067;28;20517;-70
2022/08/24 13:04:02;;;;;;;12.82;2.55;;;20.80;66.40;;;;;;5063546;28;20058;-70
2022/08/24 13:06:42;;;;;;;10.75;2.40;;;20.70;66.50;;;;;;5061322;28;20071;-70
2022/08/24 13:09:34;;;;;;;11.90;3.15;;;20.70;67.10;;;;;;5062246;28;20017;-70
2022/08/24 13:12:45;;;;;;;6.88;3.08;;;20.70;67.40;;;;;;5059323;28;20071;-72
2022/08/24 13:15:44;;;;;;;12.50;2.45;;;20.60;67.40;;;;;;5069087;28;20032;-69
2022/08/24 13:18:13;;;;;;;8.93;2.65;;;20.60;67.10;;;;;;5066073;28;20413;-69
2022/08/24 13:20:43;;;;;;;10.55;2.75;;;20.60;66.80;;;;;;5063606;28;20120;-69
2022/08/24 13:23:12;;;;;;;10.18;2.13;;;20.60;66.30;;;;;;5062468;28;20060;-69
2022/08/24 13:25:50;;;;;;;13.82;3.42;;;20.50;65.90;;;;;;5062121;28;20143;-69